Time;durP1;ratioP1;P1;durP2;ratioP2;P2;SDS_P1;SDS_P2;PMS_P1;PMS_P2;Temp;Humidity;BMP_temperature;BMP_pressure;BME280_temperature;BME280_humidity;BME280_pressure;Samples;Min_cycle;Max_cycle;Signal;HPM_P1;HPM_P2
2022/05/08 00:02:04;;;;;;;71.37;14.47;;;9.90;99.90;;;;;;5036816;28;20174;-82
2022/05/08 00:04:30;;;;;;;56.83;13.97;;;9.80;99.90;;;;;;5036984;28;20618;-81
2022/05/08 00:06:55;;;;;;;87.23;14.87;;;9.90;99.90;;;;;;5035164;28;20180;-81
2022/05/08 00:09:21;;;;;;;40.67;15.27;;;9.90;99.90;;;;;;5034989;28;20595;-81
2022/05/08 00:11:46;;;;;;;82.60;14.53;;;9.80;99.90;;;;;;5035160;28;20558;-82
2022/05/08 00:14:12;;;;;;;96.20;13.73;;;9.90;99.90;;;;;;5036861;28;20201;-82
2022/05/08 00:16:38;;;;;;;100.13;13.60;;;9.80;99.90;;;;;;5035317;28;20230;-81
2022/05/08 00:19:03;;;;;;;37.80;14.00;;;9.90;99.90;;;;;;5036919;28;20159;-81
2022/05/08 00:21:29;;;;;;;92.63;13.80;;;9.80;99.90;;;;;;5036780;28;20241;-81
2022/05/08 00:23:54;;;;;;;38.33;13.50;;;9.80;99.90;;;;;;5038209;28;20199;-81
2022/05/08 00:26:20;;;;;;;67.23;13.40;;;9.80;99.90;;;;;;5038905;28;20203;-81
2022/05/08 00:28:46;;;;;;;73.67;14.60;;;9.80;99.90;;;;;;5037500;28;20680;-81
2022/05/08 00:31:12;;;;;;;53.40;14.03;;;9.80;99.90;;;;;;5037895;28;20180;-81
2022/05/08 00:33:38;;;;;;;30.97;14.07;;;9.80;99.90;;;;;;5036511;28;20201;-81
2022/05/08 00:36:05;;;;;;;25.50;13.33;;;9.80;99.90;;;;;;5035962;28;20293;-81
2022/05/08 00:38:31;;;;;;;52.40;13.47;;;9.80;99.90;;;;;;5034876;28;20182;-81
2022/05/08 00:40:56;;;;;;;42.57;13.73;;;9.70;99.90;;;;;;5034962;28;20188;-81
2022/05/08 00:43:26;;;;;;;73.47;15.40;;;9.80;99.90;;;;;;5034419;28;20202;-81
2022/05/08 00:45:53;;;;;;;53.80;14.13;;;9.70;99.90;;;;;;5034211;28;20301;-81
2022/05/08 00:48:18;;;;;;;33.83;14.97;;;9.70;99.90;;;;;;5035720;28;20220;-81
2022/05/08 00:50:44;;;;;;;31.40;14.27;;;9.70;99.90;;;;;;5033990;28;20179;-81
2022/05/08 00:53:10;;;;;;;25.90;13.57;;;9.70;99.90;;;;;;5034392;28;20691;-81
2022/05/08 00:55:37;;;;;;;32.27;14.50;;;9.70;99.90;;;;;;5037660;28;20325;-81
2022/05/08 00:58:03;;;;;;;32.97;14.00;;;9.70;99.90;;;;;;5040279;28;20171;-81
2022/05/08 01:00:29;;;;;;;24.37;13.17;;;9.70;99.90;;;;;;5038532;28;20177;-81
2022/05/08 01:02:57;;;;;;;41.60;13.33;;;9.70;99.90;;;;;;5038438;28;20196;-81
2022/05/08 01:05:23;;;;;;;45.00;12.87;;;9.70;99.90;;;;;;5038580;28;20675;-81
2022/05/08 01:07:49;;;;;;;32.70;12.97;;;9.70;99.90;;;;;;5037730;28;20634;-81
2022/05/08 01:10:16;;;;;;;35.60;12.53;;;9.70;99.90;;;;;;5036725;28;20169;-81
2022/05/08 01:12:44;;;;;;;57.37;13.40;;;9.70;99.90;;;;;;5038606;28;20240;-81
2022/05/08 01:15:14;;;;;;;53.67;12.50;;;9.70;99.90;;;;;;5037257;28;20185;-81
2022/05/08 01:17:40;;;;;;;58.93;13.47;;;9.80;99.90;;;;;;5037182;28;20188;-81
2022/05/08 01:20:06;;;;;;;50.83;13.20;;;9.80;99.90;;;;;;5037139;28;20179;-81
2022/05/08 01:22:32;;;;;;;46.20;13.27;;;9.80;99.90;;;;;;5036963;28;20337;-81
2022/05/08 01:25:00;;;;;;;31.67;13.47;;;9.80;99.90;;;;;;5036725;28;20194;-81
2022/05/08 01:27:26;;;;;;;25.80;12.43;;;9.80;99.90;;;;;;5035780;28;20264;-81
2022/05/08 01:29:51;;;;;;;53.30;12.90;;;9.70;99.90;;;;;;5035541;28;20251;-82
2022/05/08 01:32:17;;;;;;;20.73;11.90;;;9.70;99.90;;;;;;5036919;28;20237;-81
2022/05/08 01:34:43;;;;;;;31.37;12.87;;;9.70;99.90;;;;;;5039140;28;20171;-82
2022/05/08 01:37:08;;;;;;;28.80;13.63;;;9.70;99.90;;;;;;5039271;28;20579;-82
2022/05/08 01:39:34;;;;;;;61.27;13.43;;;9.70;99.90;;;;;;5038436;28;20246;-82
2022/05/08 01:42:02;;;;;;;35.33;13.13;;;9.70;99.90;;;;;;5038822;28;20228;-82
2022/05/08 01:44:28;;;;;;;33.90;12.27;;;9.70;99.90;;;;;;5038904;28;20178;-82
2022/05/08 01:48:21;;;;;;;47.77;13.17;;;9.70;99.90;;;;;;5039018;28;20584;-82
2022/05/08 01:49:40;;;;;;;76.67;13.87;;;9.70;99.90;;;;;;5038266;28;20700;-81
2022/05/08 01:52:06;;;;;;;22.80;12.83;;;9.70;99.90;;;;;;5037103;28;20175;-82
2022/05/08 01:54:32;;;;;;;44.57;13.10;;;9.70;99.90;;;;;;5038218;28;20249;-82
2022/05/08 01:56:58;;;;;;;58.97;15.37;;;9.70;99.90;;;;;;5037066;28;20202;-82
2022/05/08 01:59:24;;;;;;;42.63;13.20;;;9.70;99.90;;;;;;5036935;28;20606;-83
2022/05/08 02:01:50;;;;;;;29.03;12.37;;;9.70;99.90;;;;;;5037298;28;20204;-82
2022/05/08 02:04:15;;;;;;;38.23;14.30;;;9.70;99.90;;;;;;5038346;28;20649;-82
2022/05/08 02:06:42;;;;;;;41.30;12.60;;;9.70;99.90;;;;;;5038571;28;20178;-82
2022/05/08 02:09:08;;;;;;;27.57;12.80;;;9.70;99.90;;;;;;5037102;28;20553;-82
2022/05/08 02:11:34;;;;;;;36.43;13.63;;;9.80;99.90;;;;;;5036642;28;20185;-82
2022/05/08 02:14:00;;;;;;;40.80;14.23;;;9.80;99.90;;;;;;5037494;28;20714;-82
2022/05/08 02:16:26;;;;;;;61.23;14.37;;;9.80;99.90;;;;;;5038187;28;20176;-82
2022/05/08 02:18:51;;;;;;;39.83;14.70;;;9.70;99.90;;;;;;5038588;28;20208;-82
2022/05/08 02:21:17;;;;;;;40.27;13.73;;;9.70;99.90;;;;;;5036595;28;20209;-82
2022/05/08 02:23:43;;;;;;;87.17;14.10;;;9.70;99.90;;;;;;5037717;28;20209;-82
2022/05/08 02:26:09;;;;;;;27.10;13.23;;;9.70;99.90;;;;;;5036700;28;20198;-82
2022/05/08 02:28:34;;;;;;;50.87;13.80;;;9.70;99.90;;;;;;5036746;28;20200;-82
2022/05/08 02:31:00;;;;;;;24.77;14.27;;;9.80;99.90;;;;;;5036281;28;20574;-82
2022/05/08 02:33:26;;;;;;;29.53;13.60;;;9.80;99.90;;;;;;5036418;28;20194;-82
2022/05/08 02:35:51;;;;;;;33.33;13.83;;;9.80;99.90;;;;;;5036307;28;20193;-82
2022/05/08 02:38:17;;;;;;;35.07;14.27;;;9.80;99.90;;;;;;5037555;28;20232;-82
2022/05/08 02:40:43;;;;;;;24.13;14.53;;;9.80;99.90;;;;;;5037379;28;20208;-82
2022/05/08 02:43:08;;;;;;;52.57;14.77;;;9.80;99.90;;;;;;5037486;28;20232;-82
2022/05/08 02:45:34;;;;;;;44.80;13.43;;;9.80;99.90;;;;;;5036198;28;20210;-82
2022/05/08 02:48:00;;;;;;;20.23;14.87;;;9.80;99.90;;;;;;5036260;28;20185;-82
2022/05/08 02:50:26;;;;;;;36.47;13.67;;;9.80;99.90;;;;;;5037787;28;20625;-82
2022/05/08 02:52:52;;;;;;;28.63;14.17;;;9.90;99.90;;;;;;5036344;28;20252;-82
2022/05/08 03:00:54;;;;;;;29.53;13.97;;;9.90;99.90;;;;;;5037875;28;20175;-82
2022/05/08 03:03:19;;;;;;;56.80;14.43;;;9.90;99.90;;;;;;5037049;28;20229;-81
2022/05/08 03:05:47;;;;;;;19.23;13.37;;;9.90;99.90;;;;;;5037427;28;20648;-82
2022/05/08 03:08:15;;;;;;;47.07;15.30;;;9.90;99.90;;;;;;5037211;28;20236;-82
2022/05/08 03:13:29;;;;;;;36.37;14.30;;;9.90;99.90;;;;;;5037437;28;20731;-81
2022/05/08 03:15:55;;;;;;;28.90;14.27;;;10.00;99.90;;;;;;5039904;28;20206;-81
2022/05/08 03:18:22;;;;;;;23.17;14.63;;;10.00;99.90;;;;;;5036952;28;20661;-82
2022/05/08 03:20:48;;;;;;;24.23;14.30;;;10.00;99.90;;;;;;5035640;28;20185;-82
2022/05/08 03:23:16;;;;;;;26.90;15.23;;;10.00;99.90;;;;;;5037306;28;20197;-82
2022/05/08 03:25:45;;;;;;;30.43;14.80;;;10.00;99.90;;;;;;5036340;28;20199;-82
2022/05/08 03:28:15;;;;;;;28.70;15.17;;;9.90;99.90;;;;;;5036004;28;20188;-82
2022/05/08 03:30:41;;;;;;;37.40;15.70;;;10.00;99.90;;;;;;5036497;28;20190;-81
2022/05/08 03:33:08;;;;;;;31.97;15.07;;;9.90;99.90;;;;;;5037065;28;20672;-82
2022/05/08 03:35:35;;;;;;;40.60;16.23;;;9.90;99.90;;;;;;5035477;28;20186;-82
2022/05/08 03:38:00;;;;;;;40.87;15.93;;;9.90;99.90;;;;;;5036617;28;20193;-82
2022/05/08 03:40:26;;;;;;;62.93;17.60;;;9.90;99.90;;;;;;5036406;28;20261;-82
2022/05/08 03:42:53;;;;;;;44.23;17.00;;;9.90;99.90;;;;;;5036533;28;20196;-82
2022/05/08 03:45:19;;;;;;;60.97;19.20;;;9.90;99.90;;;;;;5035949;28;20201;-82
2022/05/08 03:47:48;;;;;;;115.47;20.47;;;9.90;99.90;;;;;;5035344;28;20182;-82
2022/05/08 03:50:14;;;;;;;88.33;19.83;;;9.90;99.90;;;;;;5043991;28;20167;-82
2022/05/08 03:52:40;;;;;;;83.97;19.43;;;9.90;99.90;;;;;;5053543;28;20217;-82
2022/05/08 03:55:06;;;;;;;53.93;19.67;;;9.90;99.90;;;;;;5041238;28;20193;-82
2022/05/08 03:57:31;;;;;;;47.23;20.77;;;9.90;99.90;;;;;;5039421;28;20182;-81
2022/05/08 03:59:57;;;;;;;26.57;20.27;;;9.90;99.90;;;;;;5040178;28;20236;-82
2022/05/08 04:02:23;;;;;;;29.80;19.03;;;10.00;99.90;;;;;;5039220;28;20656;-82
2022/05/08 04:04:49;;;;;;;29.17;19.73;;;10.00;99.90;;;;;;5038897;28;20204;-82
2022/05/08 04:07:14;;;;;;;30.90;19.93;;;10.00;99.90;;;;;;5039310;28;20176;-82
2022/05/08 04:09:40;;;;;;;27.27;19.10;;;10.00;99.90;;;;;;5037795;28;20214;-82
2022/05/08 04:12:06;;;;;;;26.20;18.50;;;10.00;99.90;;;;;;5038548;28;20674;-82
2022/05/08 04:14:31;;;;;;;28.50;20.40;;;10.10;99.90;;;;;;5037509;28;20177;-82
2022/05/08 04:16:57;;;;;;;27.67;19.80;;;10.10;99.90;;;;;;5037519;28;20276;-82
2022/05/08 04:19:22;;;;;;;27.40;19.67;;;10.10;99.90;;;;;;5037524;28;20178;-82
2022/05/08 04:21:48;;;;;;;26.47;19.93;;;10.10;99.90;;;;;;5038355;28;20178;-82
2022/05/08 04:24:16;;;;;;;27.17;18.67;;;10.10;99.90;;;;;;5036724;28;20202;-82
2022/05/08 04:26:42;;;;;;;27.97;19.53;;;10.10;99.90;;;;;;5035696;28;20210;-82
2022/05/08 04:29:08;;;;;;;24.73;17.97;;;10.20;99.90;;;;;;5034745;28;20204;-82
2022/05/08 04:31:34;;;;;;;24.13;17.47;;;10.20;99.90;;;;;;5037164;28;20181;-82
2022/05/08 04:34:01;;;;;;;24.23;18.87;;;10.20;99.90;;;;;;5038036;28;20672;-82
2022/05/08 04:36:26;;;;;;;24.67;17.83;;;10.20;99.90;;;;;;5038157;28;20264;-82
2022/05/08 04:38:52;;;;;;;24.57;17.30;;;10.30;99.90;;;;;;5041031;28;20225;-82
2022/05/08 04:41:18;;;;;;;26.67;19.53;;;10.30;99.90;;;;;;5039759;28;20178;-82
2022/05/08 07:59:03;;;;;;;23.17;18.27;;;12.60;99.90;;;;;;5136989;27;20628;-82
2022/05/08 08:01:28;;;;;;;21.17;18.03;;;12.90;99.90;;;;;;5136768;28;20239;-79
2022/05/08 08:03:54;;;;;;;18.40;16.03;;;13.10;99.90;;;;;;5136068;28;20191;-79
2022/05/08 08:06:19;;;;;;;18.27;16.03;;;13.20;99.90;;;;;;5136135;27;20167;-80
2022/05/08 08:08:45;;;;;;;20.53;17.10;;;13.20;99.90;;;;;;5136517;27;20208;-80
2022/05/08 08:11:11;;;;;;;18.63;15.57;;;13.20;99.90;;;;;;5136407;27;20175;-81
2022/05/08 08:13:36;;;;;;;17.43;15.40;;;13.20;99.90;;;;;;5136105;27;20194;-80
2022/05/08 08:16:03;;;;;;;17.13;15.33;;;13.20;99.90;;;;;;5136308;27;20258;-79
2022/05/08 08:18:29;;;;;;;16.07;14.37;;;13.20;99.90;;;;;;5135468;27;20659;-79
2022/05/08 08:20:55;;;;;;;19.53;16.97;;;13.20;99.90;;;;;;5135766;27;20668;-79
2022/05/08 08:23:21;;;;;;;16.67;14.90;;;13.10;99.90;;;;;;5134737;28;20198;-79
2022/05/08 08:25:47;;;;;;;19.40;15.33;;;12.90;99.90;;;;;;5136310;27;20250;-79
2022/05/08 08:28:14;;;;;;;18.07;14.63;;;12.90;99.90;;;;;;5134689;28;20644;-79
2022/05/08 08:30:39;;;;;;;17.30;15.03;;;12.80;99.90;;;;;;5135465;27;20175;-79
2022/05/08 08:33:05;;;;;;;18.60;15.90;;;13.00;99.90;;;;;;5135090;28;20216;-79
2022/05/08 08:35:31;;;;;;;17.33;15.30;;;13.00;99.90;;;;;;5135049;28;20178;-80
2022/05/08 08:37:56;;;;;;;16.97;15.17;;;13.00;99.90;;;;;;5134319;28;20207;-80
2022/05/08 08:40:22;;;;;;;18.40;15.10;;;13.00;99.90;;;;;;5134309;28;20270;-80
2022/05/08 08:42:50;;;;;;;15.97;13.97;;;13.00;99.90;;;;;;5135127;28;20191;-80
2022/05/08 08:48:06;;;;;;;18.83;15.10;;;13.00;99.90;;;;;;5137107;28;20192;-79
2022/05/08 08:50:33;;;;;;;17.33;15.10;;;13.00;99.90;;;;;;5136786;27;20181;-79
2022/05/08 08:53:04;;;;;;;18.10;15.03;;;13.10;99.90;;;;;;5137470;27;20645;-79
2022/05/08 08:55:31;;;;;;;17.23;15.43;;;13.20;99.90;;;;;;5140344;27;20174;-79
2022/05/08 08:57:57;;;;;;;17.83;14.60;;;13.30;99.90;;;;;;5141946;27;20309;-78
2022/05/08 09:00:23;;;;;;;15.97;13.77;;;13.60;99.90;;;;;;5141148;27;20628;-79
2022/05/08 09:02:54;;;;;;;16.30;14.13;;;14.00;99.90;;;;;;5140048;27;20209;-78
2022/05/08 09:05:19;;;;;;;16.53;13.97;;;14.30;99.90;;;;;;5132607;28;20179;-78
2022/05/08 09:07:52;;;;;;;14.63;12.37;;;14.80;99.90;;;;;;5130941;28;20519;-78
2022/05/08 09:10:23;;;;;;;14.60;13.10;;;15.40;99.90;;;;;;5119767;27;20561;-79
2022/05/08 09:12:52;;;;;;;14.77;13.17;;;16.30;99.90;;;;;;5119504;28;20187;-79
2022/05/08 09:15:21;;;;;;;13.23;11.83;;;16.20;99.90;;;;;;5119558;28;20210;-79
2022/05/08 09:17:48;;;;;;;12.77;11.30;;;16.00;99.90;;;;;;5119626;28;20210;-78
2022/05/08 09:20:23;;;;;;;15.60;12.03;;;16.00;99.90;;;;;;5119181;28;20171;-79
2022/05/08 09:23:04;;;;;;;13.33;11.57;;;16.30;99.90;;;;;;5119596;28;20205;-78
2022/05/08 09:25:57;;;;;;;13.53;11.70;;;16.00;99.90;;;;;;5119962;28;20175;-81
2022/05/08 09:28:41;;;;;;;12.30;11.10;;;15.40;99.90;;;;;;5118497;28;20188;-79
2022/05/08 09:31:08;;;;;;;12.73;11.43;;;15.00;99.90;;;;;;5119019;28;20212;-78
2022/05/08 09:33:38;;;;;;;13.77;11.60;;;14.90;99.90;;;;;;5120181;28;20657;-79
2022/05/08 09:36:07;;;;;;;14.40;11.50;;;14.70;99.90;;;;;;5120391;28;20172;-79
2022/05/08 09:38:54;;;;;;;13.23;11.80;;;14.60;99.90;;;;;;5120583;27;20722;-80
2022/05/08 09:41:27;;;;;;;12.83;11.53;;;14.50;99.90;;;;;;5119973;28;20210;-80
2022/05/08 09:43:54;;;;;;;12.47;11.27;;;14.30;99.90;;;;;;5120910;28;20197;-80
2022/05/08 09:46:21;;;;;;;17.17;13.10;;;13.90;99.90;;;;;;5118869;28;20179;-80
2022/05/08 09:48:47;;;;;;;15.20;13.00;;;13.70;99.90;;;;;;5120560;28;20187;-80
2022/05/08 09:51:17;;;;;;;14.30;12.37;;;13.60;99.90;;;;;;5118565;28;20179;-80
2022/05/08 09:53:44;;;;;;;14.07;12.57;;;13.40;99.90;;;;;;5119956;28;20192;-80
2022/05/08 09:56:11;;;;;;;14.00;12.53;;;13.30;99.90;;;;;;5120279;28;20660;-80
2022/05/08 09:58:41;;;;;;;14.90;13.30;;;13.20;99.90;;;;;;5118899;28;20207;-80
2022/05/08 10:01:10;;;;;;;18.07;13.63;;;13.10;99.90;;;;;;5119951;28;20230;-81
2022/05/08 10:03:36;;;;;;;15.20;13.67;;;13.00;99.90;;;;;;5120192;28;20191;-80
2022/05/08 10:06:02;;;;;;;14.93;13.00;;;13.10;99.90;;;;;;5118663;28;20193;-80
2022/05/08 10:08:39;;;;;;;15.77;14.17;;;13.00;99.90;;;;;;5118868;28;20171;-80
2022/05/08 10:13:57;;;;;;;16.60;12.47;;;13.10;99.90;;;;;;5119052;28;20217;-79
2022/05/08 10:16:46;;;;;;;16.87;13.67;;;13.20;99.90;;;;;;5117599;28;20195;-80
2022/05/08 10:19:27;;;;;;;17.10;14.47;;;13.30;99.90;;;;;;5118794;28;20649;-81
2022/05/08 10:22:10;;;;;;;17.33;14.07;;;13.40;99.90;;;;;;5116756;28;20176;-81
2022/05/08 10:24:57;;;;;;;14.70;13.10;;;13.50;99.90;;;;;;5117204;28;20171;-80
2022/05/08 10:27:24;;;;;;;15.63;14.03;;;;;;;;;;5118301;28;20144;-81
2022/05/08 10:29:50;;;;;;;14.27;12.73;;;14.00;99.90;;;;;;5116667;28;20167;-81
2022/05/08 10:32:31;;;;;;;14.17;12.67;;;14.30;99.90;;;;;;5118652;28;20570;-81
2022/05/08 10:35:35;;;;;;;14.00;12.63;;;14.30;99.90;;;;;;5115840;28;20216;-81
2022/05/08 10:38:06;;;;;;;13.83;12.17;;;14.50;99.90;;;;;;5056802;28;20207;-78
2022/05/08 10:40:33;;;;;;;13.07;11.77;;;14.70;99.90;;;;;;5058162;28;20184;-81
2022/05/08 10:43:25;;;;;;;11.73;10.53;;;14.60;99.90;;;;;;5099008;28;20227;-81
2022/05/08 10:45:51;;;;;;;12.23;10.77;;;14.40;99.90;;;;;;5118443;28;20186;-81
2022/05/08 10:48:21;;;;;;;10.27;9.27;;;14.40;99.90;;;;;;5119530;28;20183;-81
2022/05/08 10:50:48;;;;;;;11.07;9.40;;;14.30;99.90;;;;;;5120264;28;20202;-81
2022/05/08 10:53:35;;;;;;;9.50;8.53;;;14.40;99.90;;;;;;5131219;28;20223;-80
2022/05/08 10:56:06;;;;;;;11.07;8.87;;;14.50;99.90;;;;;;5124525;28;20616;-82
2022/05/08 10:58:40;;;;;;;10.30;9.30;;;14.80;99.90;;;;;;5119243;28;20199;-81
2022/05/08 11:01:09;;;;;;;9.23;8.33;;;14.80;99.90;;;;;;5117312;28;20224;-82
2022/05/08 11:03:35;;;;;;;13.17;10.57;;;15.10;99.90;;;;;;5118597;28;20222;-82
2022/05/08 11:06:03;;;;;;;14.90;9.57;;;15.00;99.90;;;;;;5118263;28;20202;-82
2022/05/08 11:08:31;;;;;;;12.83;10.33;;;14.80;99.90;;;;;;5116938;28;20179;-81
2022/05/08 11:10:57;;;;;;;10.47;9.43;;;14.60;99.90;;;;;;5119487;28;20633;-82
2022/05/08 11:13:23;;;;;;;9.60;8.70;;;14.80;99.90;;;;;;5118973;28;20195;-82
2022/05/08 11:15:50;;;;;;;9.97;8.97;;;15.00;99.90;;;;;;5119405;28;20180;-82
2022/05/08 11:18:20;;;;;;;9.57;8.17;;;15.30;99.90;;;;;;5118520;28;20546;-83
2022/05/08 11:20:53;;;;;;;9.17;8.27;;;15.60;99.90;;;;;;5118767;28;20178;-81
2022/05/08 11:23:27;;;;;;;9.03;8.17;;;15.60;99.90;;;;;;5117295;28;20191;-81
2022/05/08 11:25:56;;;;;;;9.37;8.47;;;15.60;99.90;;;;;;5117623;28;20167;-82
2022/05/08 11:28:23;;;;;;;10.03;8.60;;;15.50;99.90;;;;;;5117594;28;20195;-82
2022/05/08 11:30:52;;;;;;;10.70;8.40;;;15.40;99.90;;;;;;5118936;28;20175;-82
2022/05/08 11:36:06;;;;;;;10.27;7.33;;;15.30;99.90;;;;;;5119261;28;20689;-82
2022/05/08 11:38:41;;;;;;;8.60;7.80;;;15.30;99.90;;;;;;5119447;28;20223;-84
2022/05/08 11:41:10;;;;;;;8.87;8.07;;;15.30;99.90;;;;;;5119014;28;20636;-83
2022/05/08 11:43:39;;;;;;;8.17;7.43;;;15.40;99.90;;;;;;5118862;28;20191;-82
2022/05/08 11:46:07;;;;;;;9.63;7.73;;;15.60;99.90;;;;;;5117880;28;20632;-83
2022/05/08 11:48:37;;;;;;;7.87;7.07;;;15.80;99.90;;;;;;5118667;28;20176;-81
2022/05/08 11:51:04;;;;;;;7.43;6.73;;;15.90;99.90;;;;;;5123625;28;20175;-81
2022/05/08 11:53:52;;;;;;;8.33;6.93;;;16.10;99.90;;;;;;5121350;28;20195;-80
2022/05/08 11:56:24;;;;;;;7.43;6.73;;;16.30;99.90;;;;;;5121402;28;20175;-80
2022/05/08 11:58:50;;;;;;;7.40;6.20;;;16.40;99.90;;;;;;5122941;28;20207;-81
2022/05/08 12:01:35;;;;;;;7.17;6.47;;;16.50;99.90;;;;;;5121636;28;20675;-80
2022/05/08 12:04:26;;;;;;;7.63;6.93;;;16.60;99.90;;;;;;5118417;28;20248;-81
2022/05/08 12:07:00;;;;;;;7.53;6.83;;;16.40;99.90;;;;;;5118823;28;20199;-82
2022/05/08 12:09:31;;;;;;;7.60;6.90;;;16.30;99.90;;;;;;5118653;28;20163;-82
2022/05/08 12:11:57;;;;;;;6.73;6.07;;;16.10;99.90;;;;;;5117388;28;20168;-81
2022/05/08 12:14:30;;;;;;;6.90;6.27;;;16.60;99.90;;;;;;5118574;28;20282;-80
2022/05/08 12:17:02;;;;;;;7.83;6.70;;;18.30;99.90;;;;;;5115986;28;20586;-80
2022/05/08 12:19:28;;;;;;;6.17;5.57;;;19.50;99.90;;;;;;5116871;28;20266;-81
2022/05/08 12:21:54;;;;;;;6.47;5.87;;;19.10;99.90;;;;;;5119525;28;20202;-82
2022/05/08 12:24:21;;;;;;;6.13;5.30;;;18.00;99.90;;;;;;5118886;28;20227;-81
2022/05/08 12:26:49;;;;;;;5.33;4.83;;;17.30;99.90;;;;;;5120949;28;20172;-80
2022/05/08 12:29:17;;;;;;;7.57;5.57;;;17.00;99.90;;;;;;5133223;28;20164;-82
2022/05/08 12:31:43;;;;;;;6.13;5.43;;;16.80;99.90;;;;;;5134610;28;20168;-82
2022/05/08 12:34:11;;;;;;;7.73;5.27;;;16.90;99.90;;;;;;5122649;28;20274;-81
2022/05/08 12:36:39;;;;;;;5.77;4.90;;;17.10;99.90;;;;;;5116779;28;20172;-82
2022/05/08 12:39:05;;;;;;;5.73;5.13;;;17.20;99.90;;;;;;5117311;28;20200;-85
2022/05/08 12:41:33;;;;;;;6.50;5.90;;;17.20;99.90;;;;;;5117457;28;20164;-80
2022/05/08 12:44:01;;;;;;;6.13;5.53;;;17.00;99.90;;;;;;5118287;28;20192;-79
2022/05/08 12:46:27;;;;;;;7.03;6.03;;;16.80;99.90;;;;;;5122605;28;20621;-82
2022/05/08 12:49:00;;;;;;;6.23;5.63;;;16.60;99.90;;;;;;5121514;28;20196;-82
2022/05/08 12:51:26;;;;;;;6.50;5.83;;;16.50;99.90;;;;;;5121418;28;20163;-80
2022/05/08 12:53:52;;;;;;;7.20;5.63;;;16.40;99.90;;;;;;5120938;28;20194;-80
2022/05/08 12:56:19;;;;;;;6.37;5.70;;;16.20;99.90;;;;;;5121592;28;20176;-80
2022/05/08 13:01:29;;;;;;;8.47;6.17;;;16.00;99.90;;;;;;5121318;28;20677;-81
2022/05/08 13:03:55;;;;;;;7.00;6.07;;;15.90;99.90;;;;;;5120150;28;20191;-80
2022/05/08 13:06:21;;;;;;;7.70;6.40;;;15.80;99.90;;;;;;5120660;28;20168;-80
2022/05/08 13:08:46;;;;;;;6.73;6.13;;;15.90;99.90;;;;;;5120422;28;20199;-78
2022/05/08 13:11:12;;;;;;;6.93;5.73;;;15.90;99.90;;;;;;5120139;28;20171;-83
2022/05/08 13:13:38;;;;;;;7.17;6.47;;;15.90;99.90;;;;;;5120299;28;20191;-82
2022/05/08 13:16:11;;;;;;;7.87;5.60;;;15.90;99.90;;;;;;5117604;28;20176;-82
2022/05/08 13:18:36;;;;;;;6.03;5.43;;;15.90;99.90;;;;;;5118556;28;20218;-81
2022/05/08 13:21:02;;;;;;;6.23;5.63;;;15.80;99.90;;;;;;5119742;28;20168;-86
2022/05/08 13:23:28;;;;;;;7.43;5.47;;;15.70;99.90;;;;;;5120148;28;20668;-82
2022/05/08 13:25:53;;;;;;;7.07;6.17;;;15.70;99.90;;;;;;5120835;28;20629;-80
2022/05/08 13:28:19;;;;;;;6.17;5.57;;;15.50;99.90;;;;;;5120124;28;20224;-82
2022/05/08 13:30:45;;;;;;;7.33;6.30;;;;;;;;;;5122533;28;20659;-83
2022/05/08 13:33:11;;;;;;;6.97;6.17;;;15.30;99.90;;;;;;5122076;28;20191;-82
2022/05/08 13:35:36;;;;;;;7.17;6.57;;;15.30;99.90;;;;;;5120512;28;20182;-82
2022/05/08 13:38:02;;;;;;;8.80;7.17;;;15.30;99.90;;;;;;5120162;28;20244;-82
2022/05/08 13:40:28;;;;;;;6.07;5.57;;;15.20;99.90;;;;;;5119965;28;20171;-82
2022/05/08 13:42:56;;;;;;;9.40;6.73;;;15.30;99.90;;;;;;5118798;28;20615;-82
2022/05/08 13:45:22;;;;;;;7.23;6.53;;;15.40;99.90;;;;;;5120521;28;20629;-82
2022/05/08 13:47:47;;;;;;;6.90;6.20;;;15.40;99.90;;;;;;5120105;28;20259;-82
2022/05/08 13:50:13;;;;;;;7.27;6.57;;;15.50;99.90;;;;;;5121779;28;20171;-84
2022/05/08 13:52:39;;;;;;;7.07;6.37;;;15.40;99.90;;;;;;5122645;28;20225;-86
2022/05/08 13:55:06;;;;;;;7.87;6.40;;;15.40;99.90;;;;;;5120179;28;20179;-81
2022/05/08 13:57:33;;;;;;;7.30;6.50;;;15.40;99.90;;;;;;5118630;28;20238;-80
2022/05/08 13:59:58;;;;;;;7.50;6.17;;;15.50;99.90;;;;;;5118842;28;20175;-82
2022/05/08 14:02:24;;;;;;;6.97;6.27;;;15.70;99.90;;;;;;5118788;28;20206;-81
2022/05/08 14:04:50;;;;;;;6.93;6.13;;;;;;;;;;5119864;28;20179;-81
2022/05/08 14:07:16;;;;;;;8.50;6.30;;;15.80;99.90;;;;;;5121058;28;20176;-81
2022/05/08 14:09:42;;;;;;;7.33;6.47;;;15.90;99.90;;;;;;5119423;28;20250;-81
2022/05/08 14:12:07;;;;;;;8.87;6.93;;;15.70;99.90;;;;;;5118669;28;20179;-82
2022/05/08 14:14:33;;;;;;;7.17;6.47;;;15.70;99.90;;;;;;5120479;28;20179;-81
2022/05/08 14:16:59;;;;;;;7.37;5.87;;;15.70;99.90;;;;;;5130137;28;20174;-80
2022/05/08 14:19:28;;;;;;;6.90;6.20;;;15.90;99.90;;;;;;5120515;28;20178;-81
2022/05/08 14:21:53;;;;;;;10.80;7.03;;;16.20;99.90;;;;;;5117370;28;20174;-81
2022/05/08 14:24:19;;;;;;;7.30;6.60;;;16.30;99.90;;;;;;5118791;28;20543;-82
2022/05/08 14:26:45;;;;;;;6.60;6.00;;;16.20;99.90;;;;;;5118468;28;20217;-82
2022/05/08 14:29:12;;;;;;;12.03;6.77;;;16.00;99.90;;;;;;5118788;28;20206;-81
2022/05/08 14:37:05;;;;;;;7.80;7.03;;;15.30;99.90;;;;;;5118907;28;20208;-81
2022/05/08 14:39:31;;;;;;;8.60;6.57;;;15.30;99.90;;;;;;5118709;28;20176;-81
2022/05/08 14:41:57;;;;;;;8.57;6.83;;;15.30;99.90;;;;;;5116521;28;20258;-81
2022/05/08 14:44:22;;;;;;;7.13;6.43;;;15.20;99.90;;;;;;5117046;28;20282;-81
2022/05/08 14:46:48;;;;;;;7.57;6.60;;;15.20;99.90;;;;;;5117155;28;20562;-80
2022/05/08 14:49:14;;;;;;;7.70;6.90;;;15.20;99.90;;;;;;5117189;28;20171;-81
2022/05/08 14:51:39;;;;;;;9.30;6.53;;;15.10;99.90;;;;;;5119074;28;20172;-82
2022/05/08 14:54:05;;;;;;;8.47;7.43;;;;;;;;;;5116854;28;20196;-81
2022/05/08 14:56:32;;;;;;;7.70;7.00;;;;;;;;;;5116794;28;20538;-82
2022/05/08 14:58:58;;;;;;;9.50;7.93;;;15.10;99.90;;;;;;5118144;28;20214;-81
2022/05/08 15:01:23;;;;;;;8.63;7.73;;;15.00;99.90;;;;;;5118258;28;20172;-81
2022/05/08 15:03:49;;;;;;;8.57;7.13;;;14.90;99.90;;;;;;5118683;28;20218;-81
2022/05/08 15:06:15;;;;;;;8.80;7.90;;;;;;;;;;5118265;28;20199;-82
2022/05/08 15:08:42;;;;;;;10.53;7.50;;;;;;;;;;5118147;28;20183;-82
2022/05/08 15:11:08;;;;;;;8.53;7.63;;;15.00;99.90;;;;;;5117192;28;20175;-81
2022/05/08 15:13:35;;;;;;;7.93;7.20;;;14.90;99.90;;;;;;5116619;28;20207;-81
2022/05/08 15:16:01;;;;;;;7.97;6.97;;;14.80;99.90;;;;;;5117405;28;20187;-80
2022/05/08 15:21:11;;;;;;;10.13;8.37;;;14.70;99.90;;;;;;5118356;28;20171;-81
2022/05/08 15:23:37;;;;;;;8.50;7.67;;;14.80;99.90;;;;;;5116700;28;20195;-81
2022/05/08 15:26:03;;;;;;;8.83;7.03;;;14.80;99.90;;;;;;5119444;28;20222;-81
2022/05/08 15:28:28;;;;;;;9.17;7.97;;;14.80;99.90;;;;;;5117162;28;20183;-81
2022/05/08 15:30:55;;;;;;;8.23;7.33;;;15.00;99.90;;;;;;5117292;28;20245;-81
2022/05/08 15:33:20;;;;;;;9.70;7.67;;;15.10;99.90;;;;;;5117056;28;20205;-81
2022/05/08 15:35:46;;;;;;;8.20;7.40;;;15.20;99.90;;;;;;5118393;28;20205;-81
2022/05/08 15:38:13;;;;;;;10.03;7.50;;;;;;;;;;5118258;28;20282;-81
2022/05/08 15:40:38;;;;;;;8.70;7.80;;;15.40;99.90;;;;;;5117193;28;20175;-81
2022/05/08 15:43:05;;;;;;;8.63;7.80;;;15.40;99.90;;;;;;5119123;28;20206;-81
2022/05/08 15:45:31;;;;;;;8.10;7.30;;;15.40;99.90;;;;;;5118167;28;20175;-81
2022/05/08 15:47:57;;;;;;;8.67;7.80;;;15.50;99.90;;;;;;5120132;28;20175;-81
2022/05/08 15:50:23;;;;;;;8.87;7.97;;;15.70;99.90;;;;;;5120765;28;20601;-82
2022/05/08 15:52:50;;;;;;;9.83;8.17;;;15.80;99.90;;;;;;5127678;28;20203;-81
2022/05/08 15:55:16;;;;;;;11.37;7.93;;;15.80;99.90;;;;;;5127845;28;20175;-82
2022/05/08 15:57:42;;;;;;;9.03;6.93;;;15.90;99.90;;;;;;5115130;28;20301;-82
2022/05/08 16:00:08;;;;;;;8.30;7.27;;;16.10;99.90;;;;;;5116288;28;20178;-82
2022/05/08 16:02:36;;;;;;;8.93;7.90;;;16.40;99.90;;;;;;5117734;28;20187;-81
2022/05/08 16:05:02;;;;;;;8.47;7.57;;;16.40;99.90;;;;;;5116715;28;20183;-81
2022/05/08 16:07:28;;;;;;;9.07;6.97;;;16.60;99.90;;;;;;5116465;28;20175;-81
2022/05/08 16:09:54;;;;;;;9.33;7.30;;;;;;;;;;5117590;28;20179;-81
2022/05/08 16:12:19;;;;;;;15.20;7.77;;;16.20;99.90;;;;;;5117560;28;20262;-82
2022/05/08 16:23:15;;;;;;;7.63;6.90;;;15.30;99.90;;;;;;5121706;28;20240;-81
2022/05/08 16:25:42;;;;;;;9.00;7.10;;;15.20;99.90;;;;;;5122081;28;20152;-82
2022/05/08 16:28:09;;;;;;;8.60;6.67;;;15.20;99.90;;;;;;5121833;28;20698;-82
2022/05/08 16:30:35;;;;;;;8.30;6.37;;;15.20;99.90;;;;;;5120493;28;20581;-81
2022/05/08 16:33:01;;;;;;;12.03;6.63;;;15.00;99.90;;;;;;5120361;28;20226;-82
2022/05/08 16:35:27;;;;;;;7.60;6.80;;;15.00;99.90;;;;;;5120394;28;20573;-82